Delhi, Canada
Current Conditions -  °F | °C
As of 5:49 PM on Tuesday 21 Oct 2014 (Local Time) from CYXU Reporting Station
Overcast Overcast  
Wind Chill:   Ceiling: 1100
Heat Index:   Visibility: 15mi
Dew Point:   Wind: 13mph
Humidity: 87%   Direction: 360°N
Pressure: 30.03"   Gusts: NA
Location:  42.85°N, 80.49°W
Report Text: CYXU 212149Z 36011KT 15SM OVC011 07/05 A3003 RMK SC8 SLP176
Loading
Personal Weather Stations






























Interactive Weather Map
Tropical Storm Tracking
New forecast layout! Learn more

10-Day Weather Forecast

Advertisements
Track Severe Weather on mobile